createdAt,value
2022-11-22T00:01:13.841Z,0.88
2022-11-22T00:03:50.345Z,0.86
2022-11-22T00:06:22.879Z,0.88
2022-11-22T00:08:54.449Z,0.90
2022-11-22T00:11:30.044Z,0.87
2022-11-22T00:14:05.363Z,0.86
2022-11-22T00:16:41.181Z,0.87
2022-11-22T00:19:12.491Z,0.86
2022-11-22T00:21:42.873Z,0.84
2022-11-22T00:24:18.726Z,0.79
2022-11-22T00:26:49.848Z,0.79
2022-11-22T00:29:18.847Z,0.80
2022-11-22T00:31:49.388Z,0.78
2022-11-22T00:34:24.061Z,0.75
2022-11-22T00:37:03.789Z,0.72
2022-11-22T00:40:02.868Z,0.65
2022-11-22T00:42:48.065Z,0.59
2022-11-22T00:45:29.317Z,0.59
2022-11-22T00:48:26.381Z,0.56
2022-11-22T00:51:07.639Z,0.48
2022-11-22T00:53:49.980Z,0.44
2022-11-22T00:56:27.273Z,0.40
2022-11-22T00:58:56.366Z,0.41
2022-11-22T01:01:27.142Z,0.45
2022-11-22T01:04:01.017Z,0.50
2022-11-22T01:06:34.909Z,0.57
2022-11-22T01:09:11.858Z,0.62
2022-11-22T01:11:46.598Z,0.61
2022-11-22T01:14:46.296Z,0.56
2022-11-22T01:17:34.874Z,0.52
2022-11-22T01:20:37.102Z,0.55
2022-11-22T01:23:12.087Z,0.56
2022-11-22T01:25:46.105Z,0.50
2022-11-22T01:28:15.364Z,0.40
2022-11-22T01:30:58.318Z,0.38
2022-11-22T01:33:54.223Z,0.32
2022-11-22T01:36:30.906Z,0.38
2022-11-22T01:42:00.203Z,0.46
2022-11-22T01:44:35.046Z,0.40
2022-11-22T01:47:25.445Z,0.29
2022-11-22T01:50:17.831Z,0.23
2022-11-22T01:53:03.668Z,0.19
2022-11-22T01:55:35.138Z,0.24
2022-11-22T01:58:10.268Z,0.30
2022-11-22T02:00:49.691Z,0.34
2022-11-22T02:03:37.045Z,0.34
2022-11-22T02:06:20.748Z,0.31
2022-11-22T02:09:07.528Z,0.33
2022-11-22T02:11:48.002Z,0.36
2022-11-22T02:14:29.191Z,0.35
2022-11-22T02:17:25.926Z,0.26
2022-11-22T02:19:59.219Z,0.19
2022-11-22T02:22:59.115Z,0.19
2022-11-22T02:25:55.261Z,0.16
2022-11-22T02:28:29.066Z,0.11
2022-11-22T02:31:04.144Z,0.08
2022-11-22T02:33:48.135Z,0.12
2022-11-22T02:36:20.361Z,0.19
2022-11-22T02:38:54.017Z,0.23
2022-11-22T02:41:27.356Z,0.24
2022-11-22T02:44:02.122Z,0.22
2022-11-22T02:46:59.428Z,0.22
2022-11-22T02:49:35.537Z,0.20
2022-11-22T02:52:08.179Z,0.18
2022-11-22T02:54:42.026Z,0.20
2022-11-22T02:57:17.819Z,0.20
2022-11-22T02:59:47.018Z,0.20
2022-11-22T03:02:22.362Z,0.21
2022-11-22T03:05:04.967Z,0.24
2022-11-22T03:07:39.087Z,0.27
2022-11-22T03:10:30.448Z,0.31
2022-11-22T03:13:03.853Z,0.34
2022-11-22T03:15:52.195Z,0.37
2022-11-22T03:18:26.840Z,0.42
2022-11-22T03:21:08.211Z,0.43
2022-11-22T03:23:37.783Z,0.44
2022-11-22T03:26:31.222Z,0.50
2022-11-22T03:29:16.932Z,0.56
2022-11-22T03:32:11.495Z,0.54
2022-11-22T03:34:47.798Z,0.52
2022-11-22T03:37:30.286Z,0.55
2022-11-22T03:39:59.422Z,0.56
2022-11-22T03:42:32.854Z,0.50
2022-11-22T03:45:04.744Z,0.46
2022-11-22T03:47:35.202Z,0.45
2022-11-22T03:50:18.400Z,0.49
2022-11-22T03:52:59.656Z,0.53
2022-11-22T03:55:46.962Z,0.51
2022-11-22T03:58:18.533Z,0.50
2022-11-22T04:00:49.987Z,0.49
2022-11-22T04:03:21.606Z,0.48
2022-11-22T04:05:54.499Z,0.48
2022-11-22T04:08:23.789Z,0.52
2022-11-22T04:10:52.862Z,0.56
2022-11-22T04:13:22.049Z,0.59
2022-11-22T04:15:53.620Z,0.62
2022-11-22T04:18:23.556Z,0.61
2022-11-22T04:21:11.265Z,0.56
2022-11-22T04:23:44.283Z,0.52
2022-11-22T04:26:13.256Z,0.48
2022-11-22T04:29:08.600Z,0.44
2022-11-22T04:31:49.566Z,0.41
2022-11-22T04:34:18.373Z,0.34
2022-11-22T04:36:47.298Z,0.35
2022-11-22T04:39:16.344Z,0.36
2022-11-22T04:41:45.294Z,0.33
2022-11-22T04:44:32.746Z,0.29
2022-11-22T04:47:01.529Z,0.26
2022-11-22T04:49:30.690Z,0.28
2022-11-22T04:52:18.574Z,0.30
2022-11-22T04:54:47.497Z,0.32
2022-11-22T04:57:16.361Z,0.33
2022-11-22T04:59:45.299Z,0.36
2022-11-22T05:02:14.192Z,0.33
2022-11-22T05:04:47.632Z,0.32
2022-11-22T05:07:25.880Z,0.30
2022-11-22T05:10:00.472Z,0.23
2022-11-22T05:12:47.103Z,0.19
2022-11-22T05:15:40.189Z,0.22
2022-11-22T05:18:20.474Z,0.20
2022-11-22T05:20:59.404Z,0.16
2022-11-22T05:23:49.310Z,0.06
2022-11-22T05:26:22.101Z,-0.03
2022-11-22T05:28:57.992Z,-0.07
2022-11-22T05:31:28.070Z,-0.07
2022-11-22T05:34:08.726Z,-0.07
2022-11-22T05:36:44.065Z,-0.08
2022-11-22T05:39:27.006Z,-0.10
2022-11-22T05:45:15.349Z,-0.20
2022-11-22T05:47:56.323Z,-0.22
2022-11-22T05:50:34.547Z,-0.22
2022-11-22T05:53:26.479Z,-0.20
2022-11-22T05:57:08.424Z,-0.16
2022-11-22T05:59:36.808Z,-0.14
2022-11-22T06:02:13.340Z,-0.09
2022-11-22T06:04:44.773Z,-0.06
2022-11-22T06:07:50.164Z,-0.06
2022-11-22T06:10:25.923Z,-0.05
2022-11-22T06:12:55.936Z,-0.02
2022-11-22T06:15:35.340Z,0.00
2022-11-22T06:18:08.272Z,-0.00
2022-11-22T06:20:49.377Z,0.03
2022-11-22T06:23:23.468Z,0.10
2022-11-22T06:26:10.978Z,0.16
2022-11-22T06:28:46.957Z,0.19
2022-11-22T06:31:25.968Z,0.24
2022-11-22T06:34:13.320Z,0.28
2022-11-22T06:36:42.805Z,0.33
2022-11-22T06:39:21.012Z,0.40
2022-11-22T06:41:55.555Z,0.46
2022-11-22T06:44:24.822Z,0.51
2022-11-22T06:46:57.069Z,0.55
2022-11-22T06:49:28.496Z,0.57
2022-11-22T06:52:01.004Z,0.59
2022-11-22T06:54:37.893Z,0.61
2022-11-22T06:57:09.424Z,0.62
2022-11-22T06:59:38.325Z,0.67
2022-11-22T07:02:12.631Z,0.69
2022-11-22T07:05:02.380Z,0.68
2022-11-22T07:07:30.849Z,0.68
2022-11-22T07:10:02.645Z,0.70
2022-11-22T07:12:31.741Z,0.72
2022-11-22T07:15:07.614Z,0.71
2022-11-22T07:17:37.115Z,0.69
2022-11-22T07:20:07.531Z,0.74
2022-11-22T07:22:36.643Z,0.77
2022-11-22T07:25:09.791Z,0.75
2022-11-22T07:27:40.152Z,0.76
2022-11-22T07:30:25.949Z,0.79
2022-11-22T07:33:02.407Z,0.77
2022-11-22T07:35:36.979Z,0.80
2022-11-22T07:38:09.579Z,0.86
2022-11-22T07:40:47.412Z,0.92
2022-11-22T07:43:18.778Z,0.94
2022-11-22T07:45:50.408Z,0.93
2022-11-22T07:48:24.310Z,0.94
2022-11-22T07:50:58.205Z,0.98
2022-11-22T07:53:29.968Z,0.98
2022-11-22T07:56:07.335Z,0.98
2022-11-22T07:58:40.351Z,0.99
2022-11-22T08:01:15.356Z,1.01
2022-11-22T08:03:50.266Z,1.01
2022-11-22T08:06:19.469Z,1.03
2022-11-22T08:08:57.249Z,1.08
2022-11-22T08:11:41.113Z,1.11
2022-11-22T08:14:12.511Z,1.14
2022-11-22T08:16:41.810Z,1.15
2022-11-22T08:19:17.968Z,1.18
2022-11-22T08:21:58.109Z,1.22
2022-11-22T08:24:30.086Z,1.25
2022-11-22T08:26:59.305Z,1.26
2022-11-22T08:29:29.441Z,1.27
2022-11-22T08:31:58.577Z,1.29
2022-11-22T08:34:27.616Z,1.36
2022-11-22T08:36:56.700Z,1.40
2022-11-22T08:39:33.932Z,1.37
2022-11-22T08:42:08.006Z,1.36
2022-11-22T08:44:46.470Z,1.40
2022-11-22T08:47:17.120Z,1.44
2022-11-22T08:49:46.231Z,1.46
2022-11-22T08:52:17.678Z,1.43
2022-11-22T08:54:56.888Z,1.38
2022-11-22T08:57:27.382Z,1.38
2022-11-22T08:59:56.497Z,1.41
2022-11-22T09:02:49.183Z,1.45
2022-11-22T09:05:15.817Z,1.48
2022-11-22T09:10:33.709Z,1.43
2022-11-22T09:13:04.955Z,1.48
2022-11-22T09:15:41.290Z,1.52
2022-11-22T09:18:14.806Z,1.58
2022-11-22T09:20:46.653Z,1.63
2022-11-22T09:23:20.037Z,1.66
2022-11-22T09:26:03.461Z,1.70
2022-11-22T09:28:36.099Z,1.73
2022-11-22T09:31:16.232Z,1.74
2022-11-22T09:33:51.964Z,1.73
2022-11-22T09:36:41.709Z,1.72
2022-11-22T09:39:10.838Z,1.73
2022-11-22T09:42:17.587Z,1.74
2022-11-22T09:45:12.915Z,1.77
2022-11-22T09:48:47.551Z,1.74
2022-11-22T09:51:22.993Z,1.69
2022-11-22T09:54:25.267Z,1.72
2022-11-22T09:57:04.240Z,1.73
2022-11-22T09:59:42.721Z,1.72
2022-11-22T10:02:35.756Z,1.72
2022-11-22T10:05:51.417Z,1.75
2022-11-22T10:09:20.644Z,1.79
2022-11-22T10:12:03.931Z,1.76
2022-11-22T10:15:16.330Z,1.75
2022-11-22T10:17:58.535Z,1.77
2022-11-22T10:20:35.271Z,1.87
2022-11-22T10:23:15.290Z,1.99
2022-11-22T10:26:13.129Z,2.03
2022-11-22T10:29:23.252Z,2.04
2022-11-22T10:32:25.428Z,2.03
2022-11-22T10:35:14.324Z,2.03
2022-11-22T10:38:17.921Z,2.00
2022-11-22T10:41:33.951Z,2.04
2022-11-22T10:48:18.833Z,2.15
2022-11-22T10:51:21.146Z,2.15
2022-11-22T10:54:33.226Z,2.20
2022-11-22T10:57:45.373Z,2.21
2022-11-22T11:00:38.010Z,2.21
2022-11-22T11:03:40.152Z,2.25
2022-11-22T11:06:29.470Z,2.31
2022-11-22T11:12:35.413Z,2.43
2022-11-22T11:15:42.997Z,2.45
2022-11-22T11:18:47.453Z,2.52
2022-11-22T11:21:30.230Z,2.63
2022-11-22T11:24:15.826Z,2.71
2022-11-22T11:27:00.656Z,2.81
2022-11-22T11:29:39.346Z,2.86
2022-11-22T11:32:31.167Z,2.84
2022-11-22T11:35:28.849Z,2.89
2022-11-22T11:38:46.954Z,2.94
2022-11-22T11:41:41.918Z,2.98
2022-11-22T11:44:40.246Z,3.05
2022-11-22T11:47:20.092Z,3.07
2022-11-22T11:50:04.648Z,3.10
2022-11-22T11:52:51.688Z,3.15
2022-11-22T11:55:32.848Z,3.20
2022-11-22T11:58:35.422Z,3.27
2022-11-22T12:01:13.719Z,3.34
2022-11-22T12:03:55.821Z,3.40
2022-11-22T12:06:32.167Z,3.44
2022-11-22T12:09:30.350Z,3.49
2022-11-22T12:12:40.693Z,3.49
2022-11-22T12:15:24.021Z,3.51
2022-11-22T12:18:44.208Z,3.55
2022-11-22T12:21:50.083Z,3.61
2022-11-22T12:25:09.195Z,3.66
2022-11-22T12:27:40.527Z,3.72
2022-11-22T12:30:22.682Z,3.82
2022-11-22T12:33:05.772Z,3.94
2022-11-22T12:35:48.720Z,4.03
2022-11-22T12:38:27.687Z,4.09
2022-11-22T12:41:03.058Z,4.16
2022-11-22T12:43:56.388Z,4.18
2022-11-22T12:46:51.322Z,4.15
2022-11-22T12:49:59.756Z,4.15
2022-11-22T12:52:39.981Z,4.14
2022-11-22T12:55:24.192Z,4.13
2022-11-22T12:58:28.106Z,4.12
2022-11-22T13:01:12.191Z,4.11
2022-11-22T13:04:10.850Z,4.10
2022-11-22T13:06:51.865Z,4.08
2022-11-22T13:09:33.655Z,4.08
2022-11-22T13:12:16.782Z,4.08
2022-11-22T13:14:55.317Z,4.10
2022-11-22T13:17:27.369Z,4.13
2022-11-22T13:20:49.076Z,4.17
2022-11-22T13:23:20.601Z,4.09
2022-11-22T13:26:34.638Z,4.09
2022-11-22T13:29:20.952Z,4.06
2022-11-22T13:32:23.166Z,4.06
2022-11-22T13:35:14.071Z,4.07
2022-11-22T13:37:51.964Z,4.06
2022-11-22T13:40:46.060Z,4.05
2022-11-22T13:43:48.313Z,4.03
2022-11-22T13:47:04.812Z,4.02
2022-11-22T13:49:46.835Z,4.00
2022-11-22T13:52:19.859Z,4.02
2022-11-22T13:54:58.396Z,4.02
2022-11-22T13:57:35.659Z,4.04
2022-11-22T14:00:15.765Z,4.04
2022-11-22T14:03:21.977Z,4.02
2022-11-22T14:05:53.978Z,3.98
2022-11-22T14:08:37.514Z,3.99
2022-11-22T14:11:22.000Z,3.98
2022-11-22T14:14:33.941Z,3.98
2022-11-22T14:17:15.665Z,3.96
2022-11-22T14:20:12.570Z,3.95
2022-11-22T14:22:51.433Z,3.95
2022-11-22T14:26:05.913Z,3.95
2022-11-22T14:29:08.866Z,3.93
2022-11-22T14:31:44.366Z,3.93
2022-11-22T14:34:29.748Z,3.97
2022-11-22T14:37:13.999Z,3.99
2022-11-22T14:39:53.709Z,3.99
2022-11-22T14:42:37.567Z,4.00
2022-11-22T14:45:18.602Z,3.98
2022-11-22T14:48:20.591Z,3.97
2022-11-22T14:51:11.594Z,3.96
2022-11-22T14:54:39.478Z,3.85
2022-11-22T14:57:25.239Z,3.79
2022-11-22T15:00:49.790Z,3.77
2022-11-22T15:09:20.685Z,3.68
2022-11-22T15:09:23.612Z,3.74
2022-11-22T15:11:20.671Z,3.62
2022-11-22T15:58:16.288Z,3.42
2022-11-22T16:00:48.680Z,3.43
2022-11-22T16:03:27.179Z,3.43
2022-11-22T16:06:11.388Z,3.45
2022-11-22T16:09:00.145Z,3.43
2022-11-22T16:11:39.197Z,3.41
2022-11-22T16:14:47.225Z,3.40
2022-11-22T16:17:29.376Z,3.40
2022-11-22T16:20:23.288Z,3.39
2022-11-22T16:23:10.735Z,3.36
2022-11-22T16:26:25.046Z,3.31
2022-11-22T16:29:13.821Z,3.27
2022-11-22T16:31:43.070Z,3.25
2022-11-22T16:34:15.441Z,3.27
2022-11-22T16:36:46.544Z,3.28
2022-11-22T16:39:15.852Z,3.29
2022-11-22T16:41:44.898Z,3.29
2022-11-22T16:44:20.241Z,3.29
2022-11-22T16:46:52.546Z,3.32
2022-11-22T16:49:23.081Z,3.34
2022-11-22T16:52:07.419Z,3.35
2022-11-22T16:54:36.553Z,3.35
2022-11-22T16:57:20.427Z,3.31
2022-11-22T16:59:56.420Z,3.26
2022-11-22T17:02:44.036Z,3.23
2022-11-22T17:05:24.168Z,3.23
2022-11-22T17:07:57.482Z,3.22
2022-11-22T17:10:26.483Z,3.24
2022-11-22T17:12:55.589Z,3.25
2022-11-22T17:15:26.319Z,3.24
2022-11-22T17:17:55.475Z,3.23
2022-11-22T17:20:24.566Z,3.24
2022-11-22T17:22:58.179Z,3.25
2022-11-22T17:25:30.851Z,3.27
2022-11-22T17:28:13.339Z,3.30
2022-11-22T17:31:07.102Z,3.29
2022-11-22T17:33:57.006Z,3.32
2022-11-22T17:36:55.033Z,3.33
2022-11-22T17:39:30.276Z,3.32
2022-11-22T17:42:20.334Z,3.34
2022-11-22T17:44:53.267Z,3.35
2022-11-22T17:47:31.133Z,3.35
2022-11-22T17:50:06.737Z,3.35
2022-11-22T17:52:38.551Z,3.36
2022-11-22T17:55:14.243Z,3.37
2022-11-22T17:57:43.714Z,3.36
2022-11-22T18:00:14.687Z,3.37
2022-11-22T18:02:54.323Z,3.38
2022-11-22T18:05:29.751Z,3.38
2022-11-22T18:08:12.778Z,3.38
2022-11-22T18:11:04.915Z,3.40
2022-11-22T18:13:39.056Z,3.41
2022-11-22T18:16:14.021Z,3.40
2022-11-22T18:19:02.565Z,3.42
2022-11-22T18:21:33.912Z,3.44
2022-11-22T18:24:08.688Z,3.42
2022-11-22T18:26:41.396Z,3.42
2022-11-22T18:32:05.462Z,3.38
2022-11-22T18:34:42.739Z,3.36
2022-11-22T18:37:27.467Z,3.34
2022-11-22T18:40:28.031Z,3.30
2022-11-22T18:43:02.053Z,3.27
2022-11-22T18:45:37.597Z,3.26
2022-11-22T18:48:07.059Z,3.25
2022-11-22T18:50:36.454Z,3.25
2022-11-22T18:53:08.077Z,3.24
2022-11-22T18:55:37.182Z,3.23
2022-11-22T18:58:06.545Z,3.22
2022-11-22T19:00:37.392Z,3.24
2022-11-22T19:03:14.610Z,3.23
2022-11-22T19:05:48.814Z,3.21
2022-11-22T19:08:20.262Z,3.18
2022-11-22T19:11:04.384Z,3.16
2022-11-22T19:13:50.777Z,3.13
2022-11-22T19:16:28.287Z,3.10
2022-11-22T19:18:58.634Z,3.05
2022-11-22T19:21:29.922Z,3.06
2022-11-22T19:24:12.016Z,3.03
2022-11-22T19:26:50.260Z,2.99
2022-11-22T19:29:23.039Z,2.87
2022-11-22T19:31:52.450Z,2.78
2022-11-22T19:34:21.569Z,2.76
2022-11-22T19:37:01.724Z,2.77
2022-11-22T19:39:50.762Z,2.78
2022-11-22T19:42:34.404Z,2.76
2022-11-22T19:45:08.247Z,2.76
2022-11-22T19:47:41.394Z,2.77
2022-11-22T19:50:43.065Z,2.70
2022-11-22T19:53:24.617Z,2.69
2022-11-22T19:56:23.566Z,2.69
2022-11-22T19:58:55.027Z,2.70
2022-11-22T20:01:27.261Z,2.69
2022-11-22T20:04:01.086Z,2.72
2022-11-22T20:06:38.980Z,2.71
2022-11-22T20:09:15.586Z,2.66
2022-11-22T20:11:48.011Z,2.69
2022-11-22T20:14:19.780Z,2.66
2022-11-22T20:16:49.184Z,2.67
2022-11-22T20:19:23.844Z,2.64
2022-11-22T20:21:55.898Z,2.58
2022-11-22T20:24:32.888Z,2.59
2022-11-22T20:27:02.677Z,2.56
2022-11-22T20:29:36.884Z,2.56
2022-11-22T20:32:19.720Z,2.54
2022-11-22T20:35:01.289Z,2.51
2022-11-22T20:37:54.566Z,2.46
2022-11-22T20:40:26.774Z,2.44
2022-11-22T20:43:07.981Z,2.42
2022-11-22T20:45:37.742Z,2.43
2022-11-22T20:48:14.228Z,2.44
2022-11-22T20:50:57.116Z,2.44
2022-11-22T20:53:52.392Z,2.47
2022-11-22T20:56:29.286Z,2.47
2022-11-22T20:59:28.851Z,2.47
2022-11-22T21:02:09.227Z,2.50
2022-11-22T21:04:57.545Z,2.54
2022-11-22T21:07:29.847Z,2.55
2022-11-22T21:10:00.383Z,2.56
2022-11-22T21:12:44.849Z,2.55
2022-11-22T21:15:45.505Z,2.53
2022-11-22T21:18:26.814Z,2.54
2022-11-22T21:21:09.042Z,2.54
2022-11-22T21:23:49.716Z,2.55
2022-11-22T21:26:41.435Z,2.53
2022-11-22T21:29:19.974Z,2.56
2022-11-22T21:32:10.354Z,2.55
2022-11-22T21:35:11.815Z,2.53
2022-11-22T21:37:45.279Z,2.54
2022-11-22T21:40:23.433Z,2.57
2022-11-22T21:43:40.533Z,2.59
2022-11-22T21:46:06.941Z,2.56
2022-11-22T21:48:41.759Z,2.55
2022-11-22T21:51:27.419Z,2.57
2022-11-22T21:54:34.397Z,2.57
2022-11-22T21:57:27.751Z,2.57
2022-11-22T22:00:17.539Z,2.57
2022-11-22T22:02:53.614Z,2.54
2022-11-22T22:05:35.495Z,2.52
2022-11-22T22:08:15.235Z,2.50
2022-11-22T22:11:15.704Z,2.47
2022-11-22T22:14:10.133Z,2.46
2022-11-22T22:16:52.705Z,2.44
2022-11-22T22:19:56.101Z,2.42
2022-11-22T22:22:29.995Z,2.41
2022-11-22T22:24:59.010Z,2.41
2022-11-22T22:27:42.842Z,2.44
2022-11-22T22:30:19.431Z,2.44
2022-11-22T22:33:21.693Z,2.44
2022-11-22T22:36:04.456Z,2.46
2022-11-22T22:38:46.805Z,2.43
2022-11-22T22:41:46.606Z,2.45
2022-11-22T22:44:59.371Z,2.44
2022-11-22T22:47:47.442Z,2.43
2022-11-22T22:50:35.616Z,2.40
2022-11-22T22:53:20.690Z,2.37
2022-11-22T22:56:11.377Z,2.36
2022-11-22T22:58:55.273Z,2.35
2022-11-22T23:01:31.435Z,2.35
2022-11-22T23:04:09.648Z,2.35
2022-11-22T23:06:50.555Z,2.36
2022-11-22T23:09:46.037Z,2.35
2022-11-22T23:12:22.510Z,2.33
2022-11-22T23:15:33.022Z,2.32
2022-11-22T23:18:28.565Z,2.31
2022-11-22T23:21:16.655Z,2.30
2022-11-22T23:23:54.823Z,2.28
2022-11-22T23:26:44.864Z,2.26
2022-11-22T23:29:20.771Z,2.23
2022-11-22T23:31:52.883Z,2.21
2022-11-22T23:34:43.731Z,2.19
2022-11-22T23:37:34.014Z,2.17
2022-11-22T23:40:14.678Z,2.14
2022-11-22T23:43:02.966Z,2.13
2022-11-22T23:46:07.112Z,2.10
2022-11-22T23:48:40.516Z,2.09
2022-11-22T23:51:10.311Z,2.08
2022-11-22T23:53:53.564Z,2.07
2022-11-22T23:56:28.409Z,2.08
2022-11-22T23:59:45.134Z,2.07
